Time;durP1;ratioP1;P1;durP2;ratioP2;P2;SDS_P1;SDS_P2;PMS_P1;PMS_P2;Temp;Humidity;BMP_temperature;BMP_pressure;BME280_temperature;BME280_humidity;BME280_pressure;Samples;Min_cycle;Max_cycle;Signal;HPM_P1;HPM_P2
2022/11/04 00:01:12;;;;;;;;;;;8.90;99.90;;;;;;5023894;28;19913;-72
2022/11/04 00:03:38;;;;;;;;;;;8.90;99.90;;;;;;5013301;28;19917;-72
2022/11/04 00:06:03;;;;;;;;;;;8.90;99.90;;;;;;5024899;28;19917;-71
2022/11/04 00:08:29;;;;;;;;;;;8.90;99.90;;;;;;5019583;28;20392;-70
2022/11/04 00:13:39;;;;;;;;;;;8.80;99.90;;;;;;5012531;28;21220;-71
2022/11/04 00:18:49;;;;;;;;;;;8.80;99.90;;;;;;5016030;28;20416;-67
2022/11/04 00:29:27;;;;;;;;;;;8.80;99.90;;;;;;5010160;28;20059;-67
2022/11/04 00:34:37;;;;;;;;;;;8.70;99.90;;;;;;5012242;28;20272;-65
2022/11/04 00:37:02;;;;;;;;;;;8.70;99.90;;;;;;5021502;28;19913;-65
2022/11/04 00:39:28;;;;;;;;;;;8.80;99.90;;;;;;5012640;28;19918;-65
2022/11/04 00:41:54;;;;;;;;;;;8.80;99.90;;;;;;5008935;28;19913;-65
2022/11/04 00:44:19;;;;;;;;;;;8.70;99.90;;;;;;5012072;28;20380;-65
2022/11/04 00:46:45;;;;;;;;;;;9.20;99.90;;;;;;5012564;28;20246;-65
2022/11/04 00:49:11;;;;;;;;;;;8.80;99.90;;;;;;5023899;28;19960;-65
2022/11/04 00:51:37;;;;;;;;;;;8.80;99.90;;;;;;5016454;28;19929;-65
2022/11/04 00:54:03;;;;;;;;;;;8.70;99.90;;;;;;5007348;28;19917;-65
2022/11/04 00:56:28;;;;;;;;;;;8.80;99.90;;;;;;5008435;28;19913;-65
2022/11/04 00:58:54;;;;;;;;;;;8.80;99.90;;;;;;5016691;28;20277;-65
2022/11/04 01:01:20;;;;;;;;;;;8.80;99.90;;;;;;5013779;28;19921;-65
2022/11/04 01:03:49;;;;;;;;;;;8.80;99.90;;;;;;5011530;28;19914;-66
2022/11/04 01:06:15;;;;;;;;;;;8.70;99.90;;;;;;5023590;28;20410;-65
2022/11/04 01:08:41;;;;;;;;;;;8.70;99.90;;;;;;5022314;28;19913;-66
2022/11/04 01:11:07;;;;;;;;;;;8.70;99.90;;;;;;5015227;28;19921;-66
2022/11/04 01:13:33;;;;;;;;;;;8.70;99.90;;;;;;5011666;28;19921;-65
2022/11/04 01:15:59;;;;;;;;;;;8.70;99.90;;;;;;5043229;28;19913;-66
2022/11/04 01:18:25;;;;;;;;;;;8.70;99.90;;;;;;5014068;28;19921;-65
2022/11/04 01:20:50;;;;;;;;;;;8.70;99.90;;;;;;5023789;28;19913;-65
2022/11/04 01:23:16;;;;;;;;;;;8.70;99.90;;;;;;5014534;28;20345;-65
2022/11/04 01:25:41;;;;;;;;;;;8.60;99.90;;;;;;5009748;28;20277;-65
2022/11/04 01:28:07;;;;;;;;;;;8.60;99.90;;;;;;5019997;28;20356;-65
2022/11/04 01:30:32;;;;;;;;;;;8.60;99.90;;;;;;5011931;28;20012;-65
2022/11/04 01:32:58;;;;;;;;;;;8.60;99.90;;;;;;5011231;28;19920;-65
2022/11/04 01:35:23;;;;;;;;;;;8.60;99.90;;;;;;5013126;28;19921;-65
2022/11/04 01:37:49;;;;;;;;;;;8.60;99.90;;;;;;5019434;28;20375;-66
2022/11/04 01:40:14;;;;;;;;;;;8.60;99.90;;;;;;5026838;28;19913;-66
2022/11/04 01:42:40;;;;;;;;;;;8.60;99.90;;;;;;5022863;28;19960;-65
2022/11/04 01:45:11;;;;;;;;;;;8.70;99.90;;;;;;5015556;28;19917;-66
2022/11/04 01:47:46;;;;;;;;;;;8.70;99.90;;;;;;5012481;28;19917;-65
2022/11/04 01:50:16;;;;;;;;;;;8.70;99.90;;;;;;5019015;28;19921;-66
2022/11/04 01:52:41;;;;;;;;;;;8.70;99.90;;;;;;5014625;28;20025;-65
2022/11/04 01:55:11;;;;;;;;;;;8.70;99.90;;;;;;5019166;28;20424;-65
2022/11/04 01:57:39;;;;;;;;;;;8.70;99.90;;;;;;5025552;28;20363;-65
2022/11/04 02:00:06;;;;;;;;;;;8.60;99.90;;;;;;5019796;28;19917;-65
2022/11/04 02:02:32;;;;;;;;;;;8.60;99.90;;;;;;5027827;28;19913;-64
2022/11/04 02:04:58;;;;;;;;;;;8.70;99.90;;;;;;5007722;28;20369;-64
2022/11/04 02:07:23;;;;;;;;;;;8.60;99.90;;;;;;5028525;28;19913;-64
2022/11/04 02:09:49;;;;;;;;;;;8.60;99.90;;;;;;5019025;28;19929;-64
2022/11/04 02:14:59;;;;;;;;;;;8.60;99.90;;;;;;5011937;28;19928;-65
2022/11/04 02:17:32;;;;;;;;;;;8.60;99.90;;;;;;5020261;28;20008;-65
2022/11/04 02:20:01;;;;;;;;;;;8.70;99.90;;;;;;5015254;28;19968;-65
2022/11/04 02:22:59;;;;;;;;;;;8.60;99.90;;;;;;5019766;28;19956;-65
2022/11/04 02:25:27;;;;;;;;;;;8.70;99.90;;;;;;5022746;28;20340;-65
2022/11/04 02:28:14;;;;;;;;;;;8.60;99.90;;;;;;5020322;28;20387;-64
2022/11/04 02:30:52;;;;;;;;;;;8.60;99.90;;;;;;5006414;28;20857;-65
2022/11/04 02:33:23;;;;;;;;;;;8.60;99.90;;;;;;5025418;28;19979;-64
2022/11/04 02:35:55;;;;;;;;;;;8.60;99.90;;;;;;5014442;28;19920;-63
2022/11/04 02:38:26;;;;;;;;;;;8.60;99.90;;;;;;5029582;28;20351;-64
2022/11/04 02:41:16;;;;;;;;;;;8.60;99.90;;;;;;5024440;28;19917;-63
2022/11/04 02:43:41;;;;;;;;;;;8.50;99.90;;;;;;5029687;28;19921;-63
2022/11/04 02:46:39;;;;;;;;;;;8.50;99.90;;;;;;5028815;28;19913;-64
2022/11/04 02:49:08;;;;;;;;;;;8.50;99.90;;;;;;5031010;28;19935;-63
2022/11/04 02:51:38;;;;;;;;;;;8.50;99.90;;;;;;5019802;28;19922;-63
2022/11/04 02:54:08;;;;;;;;;;;8.50;99.90;;;;;;5026577;28;20388;-63
2022/11/04 02:56:36;;;;;;;;;;;8.60;99.90;;;;;;5012868;28;19960;-63
2022/11/04 02:59:06;;;;;;;;;;;8.50;99.90;;;;;;5015273;28;19956;-62
2022/11/04 03:01:33;;;;;;;;;;;8.60;99.90;;;;;;5011776;28;19913;-62
2022/11/04 03:04:08;;;;;;;;;;;8.50;99.90;;;;;;5029837;28;19949;-62
2022/11/04 03:06:35;;;;;;;;;;;8.60;99.90;;;;;;5015086;28;19968;-62
2022/11/04 03:09:01;;;;;;;;;;;8.60;99.90;;;;;;5025943;28;20372;-62
2022/11/04 03:11:27;;;;;;;;;;;8.60;99.90;;;;;;5020955;28;19928;-62
2022/11/04 03:14:05;;;;;;;;;;;8.60;99.90;;;;;;5016472;28;20003;-62
2022/11/04 03:16:45;;;;;;;;;;;8.60;99.90;;;;;;5010111;28;19920;-62
2022/11/04 03:19:13;;;;;;;;;;;8.80;99.90;;;;;;5016325;28;19967;-62
2022/11/04 03:21:42;;;;;;;;;;;8.60;99.90;;;;;;5006601;28;19956;-62
2022/11/04 03:24:08;;;;;;;;;;;8.70;99.90;;;;;;5013648;28;19914;-62
2022/11/04 03:26:43;;;;;;;;;;;8.70;99.90;;;;;;4993375;28;20009;-63
2022/11/04 03:29:09;;;;;;;;;;;8.70;99.90;;;;;;5015325;28;19968;-61
2022/11/04 03:31:58;;;;;;;;;;;8.70;99.90;;;;;;5013357;28;19925;-62
2022/11/04 03:34:23;;;;;;;;;;;8.60;99.90;;;;;;5022901;28;19939;-63
2022/11/04 03:36:49;;;;;;;;;;;8.70;99.90;;;;;;5018012;28;19914;-63
2022/11/04 03:39:15;;;;;;;;;;;8.70;99.90;;;;;;5018763;28;20391;-63
2022/11/04 03:41:47;;;;;;;;;;;8.70;99.90;;;;;;5016432;28;19913;-63
2022/11/04 03:44:12;;;;;;;;;;;8.80;99.90;;;;;;5024161;28;19914;-63
2022/11/04 03:46:39;;;;;;;;;;;8.70;99.90;;;;;;5021949;28;20013;-63
2022/11/04 03:49:05;;;;;;;;;;;8.70;99.90;;;;;;5016631;28;20395;-63
2022/11/04 03:51:32;;;;;;;;;;;8.70;99.90;;;;;;5023260;28;20377;-63
2022/11/04 03:53:57;;;;;;;;;;;8.70;99.90;;;;;;5012395;28;19925;-63
2022/11/04 03:56:41;;;;;;;;;;;8.70;99.90;;;;;;5023846;28;19913;-63
2022/11/04 03:59:28;;;;;;;;;;;8.60;99.90;;;;;;5009549;28;19917;-63
2022/11/04 04:02:12;;;;;;;;;;;8.70;99.90;;;;;;5021304;28;20408;-61
2022/11/04 04:04:41;;;;;;;;;;;8.70;99.90;;;;;;5002411;28;19917;-61
2022/11/04 04:07:16;;;;;;;;;;;8.60;99.90;;;;;;5021769;28;19913;-61
2022/11/04 04:09:48;;;;;;;;;;;8.80;99.90;;;;;;5002078;28;19922;-62
2022/11/04 04:12:26;;;;;;;;;;;8.70;99.90;;;;;;5015256;28;19917;-62
2022/11/04 04:14:54;;;;;;;;;;;8.70;99.90;;;;;;5010031;28;19976;-62
2022/11/04 04:17:33;;;;;;;;;;;8.70;99.90;;;;;;5021920;28;20292;-62
2022/11/04 04:20:06;;;;;;;;;;;8.70;99.90;;;;;;5016161;28;19914;-61
2022/11/04 04:22:58;;;;;;;;;;;8.70;99.90;;;;;;5017353;28;19936;-61
2022/11/04 04:28:11;;;;;;;;;;;8.70;99.90;;;;;;5019916;28;20241;-61
2022/11/04 04:30:37;;;;;;;;;;;8.70;99.90;;;;;;5019776;28;19925;-61
2022/11/04 04:33:08;;;;;;;;;;;8.70;99.90;;;;;;5022094;28;19914;-61
2022/11/04 04:35:41;;;;;;;;;;;8.70;99.90;;;;;;5016152;28;19960;-62
2022/11/04 04:46:47;;;;;;;;;;;8.70;99.90;;;;;;5015900;28;19964;-63
2022/11/04 04:49:13;;;;;;;;;;;8.60;99.90;;;;;;5014763;28;19913;-62
2022/11/04 04:51:40;;;;;;;;;;;8.70;99.90;;;;;;5017960;28;19922;-63
2022/11/04 04:54:06;;;;;;;;;;;8.60;99.90;;;;;;5024596;28;19920;-63
2022/11/04 04:56:32;;;;;;;;;;;8.60;99.90;;;;;;5020997;28;19913;-62
2022/11/04 04:58:57;;;;;;;;;;;8.60;99.90;;;;;;5024362;28;19913;-62
2022/11/04 05:01:23;;;;;;;;;;;8.70;99.90;;;;;;5023785;28;20430;-62
2022/11/04 05:03:48;;;;;;;;;;;8.70;99.90;;;;;;5015318;28;19949;-62
2022/11/04 05:06:14;;;;;;;;;;;8.70;99.90;;;;;;5024511;28;20270;-62
2022/11/04 05:08:39;;;;;;;;;;;8.70;99.90;;;;;;5019947;28;19936;-62
2022/11/04 05:11:05;;;;;;;;;;;8.70;99.90;;;;;;5013521;28;20316;-62
2022/11/04 05:13:31;;;;;;;;;;;8.70;99.90;;;;;;5017910;28;19921;-62
2022/11/04 05:15:57;;;;;;;;;;;8.60;99.90;;;;;;5021611;28;20377;-62
2022/11/04 05:18:22;;;;;;;;;;;8.60;99.90;;;;;;5024515;28;19913;-62
2022/11/04 05:20:48;;;;;;;;;;;8.60;99.90;;;;;;5010270;28;19913;-62
2022/11/04 05:23:13;;;;;;;;;;;8.60;99.90;;;;;;5018259;28;19917;-62
2022/11/04 05:25:40;;;;;;;;;;;8.60;99.90;;;;;;5018260;28;19913;-62
2022/11/04 05:28:05;;;;;;;;;;;8.60;99.90;;;;;;5019865;28;19913;-62
2022/11/04 05:30:31;;;;;;;;;;;8.60;99.90;;;;;;5016732;28;19921;-62
2022/11/04 05:32:57;;;;;;;;;;;8.60;99.90;;;;;;5021919;28;19940;-62
2022/11/04 05:35:22;;;;;;;;;;;8.60;99.90;;;;;;5018631;28;20365;-61
2022/11/04 05:37:48;;;;;;;;;;;8.60;99.90;;;;;;5012295;28;19953;-61
2022/11/04 05:40:14;;;;;;;;;;;8.50;99.90;;;;;;5014734;28;19996;-61
2022/11/04 05:42:39;;;;;;;;;;;8.50;99.90;;;;;;5014502;28;20376;-62
2022/11/04 05:45:05;;;;;;;;;;;8.50;99.90;;;;;;5010975;28;19920;-62
2022/11/04 05:47:31;;;;;;;;;;;8.50;99.90;;;;;;5008541;28;19960;-62
2022/11/04 05:49:56;;;;;;;;;;;8.50;99.90;;;;;;5018140;28;19925;-62
2022/11/04 05:52:22;;;;;;;;;;;8.40;99.90;;;;;;5015823;28;19913;-62
2022/11/04 05:54:47;;;;;;;;;;;8.40;99.90;;;;;;5014707;28;20392;-62
2022/11/04 05:57:13;;;;;;;;;;;8.30;99.90;;;;;;5008774;28;19914;-62
2022/11/04 05:59:38;;;;;;;;;;;8.20;99.90;;;;;;5018202;28;20288;-61
2022/11/04 06:02:04;;;;;;;;;;;8.10;99.90;;;;;;5005354;28;20281;-61
2022/11/04 06:04:30;;;;;;;;;;;8.10;99.90;;;;;;5007870;28;20062;-61
2022/11/04 06:06:55;;;;;;;;;;;8.10;99.90;;;;;;5014440;28;20004;-61
2022/11/04 06:09:37;;;;;;;;;;;8.10;99.90;;;;;;5031790;28;19914;-62
2022/11/04 06:12:05;;;;;;;;;;;8.30;99.90;;;;;;5011723;28;20071;-61
2022/11/04 06:14:30;;;;;;;;;;;8.00;99.90;;;;;;5032424;28;19929;-61
2022/11/04 06:16:56;;;;;;;;;;;8.00;99.90;;;;;;5012576;28;19913;-61
2022/11/04 06:19:21;;;;;;;;;;;7.90;99.90;;;;;;5012850;28;20305;-61
2022/11/04 06:21:47;;;;;;;;;;;7.80;99.90;;;;;;5015324;28;19913;-61
2022/11/04 06:24:13;;;;;;;;;;;7.70;99.90;;;;;;5010635;28;19913;-61
2022/11/04 06:26:38;;;;;;;;;;;7.80;99.90;;;;;;5018058;28;19959;-61
2022/11/04 06:29:04;;;;;;;;;;;7.70;99.90;;;;;;5013690;28;19914;-61
2022/11/04 06:31:29;;;;;;;;;;;7.70;99.90;;;;;;5015051;28;19929;-61
2022/11/04 06:33:55;;;;;;;;;;;7.70;99.90;;;;;;5013723;28;19914;-61
2022/11/04 06:36:21;;;;;;;;;;;7.60;99.90;;;;;;5016218;28;19913;-62
2022/11/04 06:38:47;;;;;;;;;;;7.60;99.90;;;;;;5015298;28;19920;-61
2022/11/04 06:41:14;;;;;;;;;;;7.60;99.90;;;;;;5012555;28;19936;-62
2022/11/04 06:43:40;;;;;;;;;;;7.80;99.90;;;;;;5040882;28;19913;-61
2022/11/04 06:46:22;;;;;;;;;;;7.90;99.90;;;;;;5017807;28;19920;-61
2022/11/04 06:48:48;;;;;;;;;;;7.90;99.90;;;;;;5016621;28;20362;-61
2022/11/04 06:51:13;;;;;;;;;;;7.90;99.90;;;;;;5014903;28;19921;-61
2022/11/04 06:53:39;;;;;;;;;;;7.80;99.90;;;;;;5013392;28;19916;-61
2022/11/04 06:56:05;;;;;;;;;;;7.80;99.90;;;;;;5014581;28;20301;-61
2022/11/04 06:58:31;;;;;;;;;;;7.80;99.90;;;;;;5011161;28;19948;-61
2022/11/04 07:00:57;;;;;;;;;;;7.80;99.90;;;;;;5011849;28;19960;-61
2022/11/04 07:03:23;;;;;;;;;;;7.70;99.90;;;;;;5010597;28;19920;-61
2022/11/04 07:05:48;;;;;;;;;;;7.70;99.90;;;;;;5014772;28;19913;-61
2022/11/04 07:08:14;;;;;;;;;;;7.60;99.90;;;;;;5028138;28;20005;-61
2022/11/04 07:10:39;;;;;;;;;;;7.70;99.90;;;;;;5010722;28;19921;-61
2022/11/04 07:13:05;;;;;;;;;;;7.60;99.90;;;;;;5007796;28;20365;-61
2022/11/04 07:15:32;;;;;;;;;;;7.60;99.90;;;;;;5010562;28;19921;-62
2022/11/04 07:17:57;;;;;;;;;;;7.60;99.90;;;;;;5014906;28;19917;-62
2022/11/04 07:20:23;;;;;;;;;;;7.60;99.90;;;;;;5017723;28;19914;-62
2022/11/04 07:22:48;;;;;;;;;;;7.60;99.90;;;;;;5011177;28;19976;-62
2022/11/04 07:25:14;;;;;;;;;;;7.60;99.90;;;;;;5011333;28;19959;-62
2022/11/04 07:27:40;;;;;;;;;;;7.60;99.90;;;;;;5014648;28;19921;-62
2022/11/04 07:30:06;;;;;;;;;;;7.60;99.90;;;;;;5017496;28;19929;-60
2022/11/04 07:32:31;;;;;;;;;;;7.60;99.90;;;;;;5013769;28;19948;-62
2022/11/04 07:34:57;;;;;;;;;;;7.70;99.90;;;;;;5005246;28;19921;-60
2022/11/04 07:37:22;;;;;;;;;;;7.70;99.90;;;;;;5017728;28;20465;-61
2022/11/04 07:39:48;;;;;;;;;;;7.70;99.90;;;;;;5016248;28;19914;-61
2022/11/04 07:42:13;;;;;;;;;;;7.80;99.90;;;;;;5020975;28;19936;-62
2022/11/04 07:44:39;;;;;;;;;;;7.90;99.90;;;;;;5012083;28;19914;-63
2022/11/04 07:47:04;;;;;;;;;;;7.90;99.90;;;;;;5008347;28;20353;-62
2022/11/04 07:49:30;;;;;;;;;;;8.00;99.90;;;;;;5009925;28;19929;-61
2022/11/04 07:51:56;;;;;;;;;;;8.00;99.90;;;;;;5012377;28;19922;-62
2022/11/04 07:54:22;;;;;;;;;;;8.00;99.90;;;;;;5018919;28;19940;-61
2022/11/04 07:56:54;;;;;;;;;;;6.60;99.90;;;;;;5008416;28;19917;-65
2022/11/04 07:59:20;;;;;;;;;;;8.00;99.90;;;;;;5017696;28;20361;-63
2022/11/04 08:01:45;;;;;;;;;;;8.00;99.90;;;;;;5009409;28;19933;-62
2022/11/04 08:04:11;;;;;;;;;;;7.80;99.90;;;;;;5018294;28;19920;-62
2022/11/04 08:06:36;;;;;;;;;;;8.10;99.90;;;;;;5008460;28;20309;-63
2022/11/04 08:09:02;;;;;;;;;;;8.10;99.90;;;;;;5013184;28;20327;-62
2022/11/04 08:11:28;;;;;;;;;;;8.10;99.90;;;;;;5009328;28;20296;-62
2022/11/04 08:13:54;;;;;;;;;;;8.20;99.90;;;;;;5018006;28;19926;-62
2022/11/04 08:16:21;;;;;;;;;;;8.30;99.90;;;;;;5021315;28;19913;-61
2022/11/04 08:18:48;;;;;;;;;;;8.30;99.90;;;;;;5016746;28;19913;-62
2022/11/04 08:21:14;;;;;;;;;;;8.30;99.90;;;;;;5018498;28;20368;-62
2022/11/04 08:23:39;;;;;;;;;;;8.20;99.90;;;;;;5015594;28;19913;-62
2022/11/04 08:26:09;;;;;;;;;;;8.20;99.90;;;;;;5018161;28;19920;-62
2022/11/04 08:28:35;;;;;;;;;;;8.20;99.90;;;;;;5014339;28;20350;-62
2022/11/04 08:31:04;;;;;;;;;;;8.30;99.90;;;;;;5013257;28;19964;-63
2022/11/04 08:33:30;;;;;;;;;;;8.30;99.90;;;;;;5013381;28;20452;-64
2022/11/04 08:35:59;;;;;;;;;;;8.20;99.90;;;;;;5015347;28;20004;-61
2022/11/04 08:38:24;;;;;;;;;;;8.30;99.90;;;;;;5014879;28;19960;-62
2022/11/04 08:40:50;;;;;;;;;;;8.20;99.90;;;;;;5038585;28;19980;-62
2022/11/04 08:43:16;;;;;;;;;;;8.20;99.90;;;;;;5017175;28;19953;-63
2022/11/04 08:45:43;;;;;;;;;;;8.20;99.90;;;;;;5015177;28;20270;-63
2022/11/04 08:48:09;;;;;;;;;;;8.10;99.90;;;;;;5015409;28;20011;-62
2022/11/04 08:50:34;;;;;;;;;;;8.80;99.90;;;;;;5014575;28;19921;-63
2022/11/04 08:53:00;;;;;;;;;;;8.10;99.90;;;;;;5015255;28;19949;-63
2022/11/04 08:55:28;;;;;;;;;;;8.10;99.90;;;;;;5017902;28;20373;-62
2022/11/04 08:57:54;;;;;;;;;;;8.20;99.90;;;;;;5015531;28;19943;-62
2022/11/04 09:00:20;;;;;;;;;;;8.10;99.90;;;;;;5018984;28;19913;-62
2022/11/04 09:02:45;;;;;;;;;;;8.10;99.90;;;;;;5020859;28;19977;-63
2022/11/04 09:05:12;;;;;;;;;;;8.20;99.90;;;;;;5013429;28;19917;-62
2022/11/04 09:07:38;;;;;;;;;;;8.20;99.90;;;;;;5019829;28;20437;-63
2022/11/04 09:10:04;;;;;;;;;;;8.20;99.90;;;;;;5016773;28;20024;-63
2022/11/04 09:12:30;;;;;;;;;;;8.20;99.90;;;;;;5014776;28;21029;-62
2022/11/04 09:14:56;;;;;;;;;;;8.30;99.90;;;;;;5016520;28;19993;-62
2022/11/04 09:17:22;;;;;;;;;;;8.40;99.90;;;;;;5014732;28;20292;-62
2022/11/04 09:19:48;;;;;;;;;;;8.40;99.90;;;;;;5014958;28;20326;-62
2022/11/04 09:22:13;;;;;;;;;;;8.40;99.90;;;;;;5006554;28;20428;-61
2022/11/04 09:24:39;;;;;;;;;;;8.50;99.90;;;;;;5001886;28;19964;-62
2022/11/04 09:27:04;;;;;;;;;;;8.50;99.90;;;;;;5007787;28;19928;-62
2022/11/04 09:29:32;;;;;;;;;;;8.50;99.90;;;;;;5002027;28;19927;-63
2022/11/04 09:31:58;;;;;;;;;;;8.60;99.90;;;;;;5012772;28;19925;-63
2022/11/04 09:34:24;;;;;;;;;;;8.70;99.90;;;;;;5010829;28;19914;-62
2022/11/04 09:36:49;;;;;;;;;;;8.60;99.90;;;;;;5016619;28;19936;-63
2022/11/04 09:39:15;;;;;;;;;;;8.70;99.90;;;;;;5012739;28;19917;-62
2022/11/04 09:41:47;;;;;;;;;;;8.70;99.90;;;;;;5008892;28;19920;-62
2022/11/04 09:44:12;;;;;;;;;;;8.70;99.90;;;;;;5008138;28;19924;-61
2022/11/04 09:46:38;;;;;;;;;;;8.80;99.90;;;;;;5008873;28;19926;-62
2022/11/04 09:49:05;;;;;;;;;;;8.80;99.90;;;;;;5009530;28;20371;-62
2022/11/04 09:51:31;;;;;;;;;;;8.80;99.90;;;;;;5007478;28;20239;-62
2022/11/04 09:53:59;;;;;;;;;;;8.80;99.90;;;;;;5011348;28;19920;-61
2022/11/04 09:56:27;;;;;;;;;;;8.90;99.90;;;;;;5011923;28;19914;-62
2022/11/04 09:58:53;;;;;;;;;;;8.90;99.90;;;;;;5007670;28;19920;-63
2022/11/04 10:01:33;;;;;;;;;;;9.10;99.90;;;;;;5019187;28;19922;-62
2022/11/04 10:04:02;;;;;;;;;;;9.10;99.90;;;;;;5021735;28;20369;-62
2022/11/04 10:06:27;;;;;;;;;;;9.20;99.90;;;;;;5009325;28;19995;-62
2022/11/04 10:08:53;;;;;;;;;;;9.30;99.90;;;;;;5015853;28;19913;-61
2022/11/04 10:11:18;;;;;;;;;;;9.30;99.90;;;;;;5018896;28;19921;-61
2022/11/04 10:13:44;;;;;;;;;;;9.40;99.90;;;;;;5016473;28;20011;-63
2022/11/04 10:16:12;;;;;;;;;;;9.40;99.90;;;;;;5012281;28;19913;-62
2022/11/04 10:18:38;;;;;;;;;;;9.40;99.90;;;;;;5008024;28;20869;-62
2022/11/04 10:21:09;;;;;;;;;;;9.50;99.90;;;;;;5009886;28;19921;-64
2022/11/04 10:23:43;;;;;;;;;;;9.50;99.90;;;;;;5012202;28;20073;-61
2022/11/04 10:26:12;;;;;;;;;;;9.60;99.90;;;;;;5008866;28;19933;-62
2022/11/04 10:28:42;;;;;;;;;;;9.70;99.90;;;;;;5005601;28;19921;-61
2022/11/04 10:31:12;;;;;;;;;;;9.70;99.90;;;;;;5011929;28;19925;-62
2022/11/04 10:33:40;;;;;;;;;;;9.80;99.90;;;;;;5008874;28;19918;-62
2022/11/04 10:36:07;;;;;;;;;;;9.90;99.90;;;;;;5007912;28;19921;-62
2022/11/04 10:38:47;;;;;;;;;;;9.90;99.90;;;;;;5012472;28;19921;-62
2022/11/04 10:41:19;;;;;;;;;;;10.00;99.90;;;;;;5016127;28;19960;-62
2022/11/04 10:43:45;;;;;;;;;;;11.00;99.90;;;;;;5008955;28;19972;-60
2022/11/04 10:46:46;;;;;;;;;;;10.10;99.90;;;;;;5009169;28;20055;-62
2022/11/04 10:49:11;;;;;;;;;;;10.20;99.90;;;;;;5028545;28;19913;-63
2022/11/04 10:51:37;;;;;;;;;;;10.20;99.90;;;;;;5024437;28;19930;-63
2022/11/04 10:54:04;;;;;;;;;;;10.30;99.90;;;;;;5031926;28;19921;-63
2022/11/04 10:56:39;;;;;;;;;;;10.40;99.90;;;;;;5022296;28;19913;-63
2022/11/04 10:59:23;;;;;;;;;;;10.50;99.90;;;;;;5024659;28;19995;-62
2022/11/04 11:01:58;;;;;;;;;;;10.70;99.90;;;;;;5027083;28;19920;-62
2022/11/04 11:04:26;;;;;;;;;;;11.00;99.90;;;;;;5026783;28;19921;-62
2022/11/04 11:06:52;;;;;;;;;;;11.60;99.90;;;;;;5003276;28;19913;-63
2022/11/04 11:09:21;;;;;;;;;;;12.50;99.90;;;;;;5017207;28;20111;-62
2022/11/04 11:11:47;;;;;;;;;;;12.40;99.90;;;;;;5021476;28;20309;-65
2022/11/04 11:14:18;;;;;;;;;;;13.00;99.90;;;;;;5013978;28;19940;-62
2022/11/04 11:16:44;;;;;;;;;;;13.20;99.90;;;;;;5023146;28;20332;-62
2022/11/04 11:19:10;;;;;;;;;;;13.20;99.90;;;;;;5024441;28;19913;-62
2022/11/04 11:21:48;;;;;;;;;;;13.70;99.90;;;;;;5025257;28;19917;-62
2022/11/04 11:24:29;;;;;;;;;;;14.10;99.90;;;;;;5006330;28;19917;-62
2022/11/04 11:26:56;;;;;;;;;;;14.40;99.90;;;;;;5005946;28;19913;-63
2022/11/04 11:29:27;;;;;;;;;;;14.60;99.90;;;;;;4995698;28;19964;-63
2022/11/04 11:31:53;;;;;;;;;;;14.60;99.90;;;;;;5006535;28;20413;-62
2022/11/04 11:34:19;;;;;;;;;;;14.90;99.90;;;;;;5010128;28;20011;-62
2022/11/04 11:36:46;;;;;;;;;;;14.80;99.90;;;;;;4992550;28;20016;-62
2022/11/04 11:39:15;;;;;;;;;;;16.40;99.90;;;;;;5002419;28;19922;-62
2022/11/04 11:41:53;;;;;;;;;;;14.60;99.90;;;;;;5007765;28;19921;-61
2022/11/04 11:44:21;;;;;;;;;;;14.90;99.90;;;;;;5013852;28;19917;-63
2022/11/04 11:46:55;;;;;;;;;;;15.00;99.90;;;;;;5007644;28;19924;-62
2022/11/04 11:49:27;;;;;;;;;;;14.80;99.90;;;;;;5009875;28;19960;-62
2022/11/04 11:51:52;;;;;;;;;;;15.10;99.90;;;;;;5015679;28;20340;-62
2022/11/04 11:54:24;;;;;;;;;;;14.50;99.90;;;;;;5042836;28;19924;-62
2022/11/04 11:56:53;;;;;;;;;;;14.90;99.90;;;;;;5011626;28;20032;-62
2022/11/04 11:59:37;;;;;;;;;;;15.30;99.90;;;;;;5009614;28;19960;-63
2022/11/04 12:02:02;;;;;;;;;;;15.10;99.90;;;;;;5014069;28;20408;-62
2022/11/04 12:04:28;;;;;;;;;;;15.40;99.90;;;;;;5009511;28;19921;-62
2022/11/04 12:07:02;;;;;;;;;;;15.80;99.90;;;;;;5015825;28;19952;-62
2022/11/04 12:09:47;;;;;;;;;;;15.80;99.90;;;;;;5014734;28;19939;-61
2022/11/04 12:12:21;;;;;;;;;;;15.60;99.90;;;;;;5013074;28;19925;-62
2022/11/04 12:14:54;;;;;;;;;;;15.50;99.90;;;;;;5010674;28;19926;-62
2022/11/04 12:17:29;;;;;;;;;;;15.20;99.90;;;;;;5009050;28;20025;-62
2022/11/04 12:19:55;;;;;;;;;;;15.30;99.90;;;;;;5011090;28;19913;-62
2022/11/04 12:22:26;;;;;;;;;;;15.30;99.90;;;;;;5036588;28;19921;-62
2022/11/04 12:25:03;;;;;;;;;;;15.60;99.90;;;;;;5011300;28;19928;-62
2022/11/04 12:27:46;;;;;;;;;;;15.70;99.90;;;;;;5008157;28;19913;-62
2022/11/04 12:30:15;;;;;;;;;;;15.60;99.90;;;;;;5011362;28;19928;-61
2022/11/04 12:32:41;;;;;;;;;;;15.70;99.90;;;;;;5010883;28;19928;-61
2022/11/04 12:35:17;;;;;;;;;;;16.30;99.90;;;;;;5014826;28;19921;-61
2022/11/04 12:37:42;;;;;;;;;;;16.20;99.90;;;;;;5015145;28;20390;-61
2022/11/04 12:40:23;;;;;;;;;;;16.00;99.90;;;;;;5015345;28;20036;-62
2022/11/04 12:42:58;;;;;;;;;;;16.30;99.90;;;;;;5011177;28;19945;-62
2022/11/04 12:45:32;;;;;;;;;;;16.30;99.90;;;;;;5012693;28;20008;-62
2022/11/04 12:48:27;;;;;;;;;;;16.00;99.90;;;;;;5007961;28;20012;-61
2022/11/04 12:50:53;;;;;;;;;;;16.30;99.90;;;;;;5006873;28;19975;-61
2022/11/04 12:53:18;;;;;;;;;;;16.50;99.90;;;;;;5012016;28;20273;-64
2022/11/04 12:55:54;;;;;;;;;;;16.50;99.90;;;;;;5005235;28;20005;-63
2022/11/04 12:58:19;;;;;;;;;;;16.60;99.90;;;;;;5005023;28;19921;-62
2022/11/04 13:00:47;;;;;;;;;;;16.80;99.90;;;;;;5005337;28;19944;-64
2022/11/04 13:03:15;;;;;;;;;;;16.80;99.90;;;;;;5004769;28;19920;-63
2022/11/04 13:05:57;;;;;;;;;;;16.60;99.90;;;;;;5012303;28;19989;-62
2022/11/04 13:08:31;;;;;;;;;;;17.00;99.90;;;;;;5010400;28;19913;-63
2022/11/04 13:11:21;;;;;;;;;;;17.10;99.90;;;;;;5001920;28;19968;-62
2022/11/04 13:13:49;;;;;;;;;;;17.20;99.90;;;;;;4988646;28;19926;-61
2022/11/04 13:16:15;;;;;;;;;;;16.70;99.90;;;;;;5005274;28;19940;-62
2022/11/04 13:18:42;;;;;;;;;;;15.80;99.90;;;;;;5000098;28;19913;-62
2022/11/04 13:21:20;;;;;;;;;;;15.60;99.90;;;;;;5008362;28;19925;-62
2022/11/04 13:24:06;;;;;;;;;;;16.00;99.90;;;;;;5005556;28;19914;-63
2022/11/04 13:26:32;;;;;;;;;;;16.50;99.90;;;;;;5004033;28;19925;-62
2022/11/04 13:29:06;;;;;;;;;;;17.10;99.90;;;;;;5009047;28;19910;-62
2022/11/04 13:31:54;;;;;;;;;;;17.40;99.90;;;;;;5006490;28;19922;-61
2022/11/04 13:34:29;;;;;;;;;;;17.60;99.90;;;;;;5010832;28;20431;-64
2022/11/04 13:37:04;;;;;;;;;;;17.90;99.90;;;;;;5000899;28;19913;-63
2022/11/04 13:39:39;;;;;;;;;;;18.20;99.90;;;;;;5009594;28;19914;-62
2022/11/04 13:42:15;;;;;;;;;;;18.30;99.90;;;;;;5005606;28;20055;-62
2022/11/04 13:45:01;;;;;;;;;;;18.50;99.90;;;;;;5018443;28;19995;-62
2022/11/04 13:47:30;;;;;;;;;;;18.30;99.90;;;;;;5002174;28;19914;-62
2022/11/04 13:49:56;;;;;;;;;;;18.50;99.90;;;;;;5002690;28;20373;-61
2022/11/04 13:52:30;;;;;;;;;;;18.10;99.90;;;;;;5008235;28;19921;-63
2022/11/04 13:54:57;;;;;;;;;;;18.20;99.90;;;;;;5011092;28;21396;-62
2022/11/04 13:57:28;;;;;;;;;;;18.30;99.90;;;;;;5003239;28;19932;-62
2022/11/04 14:00:12;;;;;;;;;;;18.10;99.90;;;;;;4995769;28;19913;-62
2022/11/04 14:02:59;;;;;;;;;;;18.10;99.00;;;;;;5002257;28;19945;-61
2022/11/04 14:05:31;;;;;;;;;;;17.90;99.90;;;;;;5014251;28;19914;-61
2022/11/04 14:10:44;;;;;;;;;;;18.10;99.60;;;;;;5011444;28;19929;-62
2022/11/04 14:13:25;;;;;;;;;;;17.80;99.90;;;;;;5011395;28;19967;-63
2022/11/04 14:15:58;;;;;;;;;;;18.20;99.90;;;;;;5021815;28;20438;-62
2022/11/04 14:18:26;;;;;;;;;;;19.60;99.90;;;;;;5010143;28;19983;-61
2022/11/04 14:21:07;;;;;;;;;;;18.40;99.90;;;;;;5007815;28;19940;-61
2022/11/04 14:23:34;;;;;;;;;;;18.70;99.90;;;;;;5012777;28;19913;-61
2022/11/04 14:26:01;;;;;;;;;;;19.00;99.10;;;;;;5012857;28;19917;-61
2022/11/04 14:28:28;;;;;;;;;;;18.50;98.40;;;;;;5005632;28;19921;-62
2022/11/04 14:30:54;;;;;;;;;;;18.80;98.20;;;;;;5005752;28;20034;-61
2022/11/04 14:33:38;;;;;;;;;;;18.80;98.20;;;;;;5014051;28;19913;-61
2022/11/04 14:36:27;;;;;;;;;;;18.80;97.20;;;;;;5034040;28;20313;-62
2022/11/04 14:38:55;;;;;;;;;;;18.60;96.10;;;;;;5015330;28;19918;-62
2022/11/04 14:41:21;;;;;;;;;;;17.90;97.20;;;;;;5010040;28;20408;-63
2022/11/04 14:43:47;;;;;;;;;;;18.00;97.00;;;;;;5002315;28;19918;-62
2022/11/04 14:46:39;;;;;;;;;;;18.10;98.00;;;;;;5005968;28;20365;-61
2022/11/04 14:49:04;;;;;;;;;;;20.10;97.40;;;;;;5007371;28;19921;-62
2022/11/04 14:51:31;;;;;;;;;;;18.60;96.10;;;;;;5006728;28;19921;-62
2022/11/04 14:54:14;;;;;;;;;;;18.30;95.30;;;;;;5014122;28;20296;-61
2022/11/04 14:56:40;;;;;;;;;;;18.10;96.60;;;;;;5005770;28;20028;-62
2022/11/04 14:59:06;;;;;;;;;;;18.00;96.50;;;;;;5004150;28;19968;-61
2022/11/04 15:01:33;;;;;;;;;;;17.70;96.00;;;;;;5004314;28;20392;-62
2022/11/04 15:04:23;;;;;;;;;;;17.80;96.20;;;;;;5009912;28;20372;-62
2022/11/04 15:07:11;;;;;;;;;;;17.90;97.00;;;;;;5007682;28;19914;-62
2022/11/04 15:09:39;;;;;;;;;;;17.40;97.30;;;;;;5009291;28;19924;-62
2022/11/04 15:14:51;;;;;;;;;;;17.30;97.80;;;;;;5008820;28;19956;-62